Time;durP1;ratioP1;P1;durP2;ratioP2;P2;SDS_P1;SDS_P2;PMS_P1;PMS_P2;Temp;Humidity;BMP_temperature;BMP_pressure;BME280_temperature;BME280_humidity;BME280_pressure;Samples;Min_cycle;Max_cycle;Signal;HPM_P1;HPM_P2
2022/11/21 00:00:12;;;;;;;15.53;6.50;;;;;;;;;;5234102;28;20866;-78
2022/11/21 00:02:43;;;;;;;17.63;6.80;;;;;;;;;;5217551;28;20321;-77
2022/11/21 00:05:15;;;;;;;18.15;7.60;;;;;;;;;;5217370;28;20471;-79
2022/11/21 00:07:46;;;;;;;18.75;7.55;;;;;;;;;;5234208;28;20062;-78
2022/11/21 00:10:17;;;;;;;17.52;7.28;;;;;;;;;;5233974;28;20113;-79
2022/11/21 00:12:55;;;;;;;24.60;9.00;;;;;;;;;;5216821;28;20029;-79
2022/11/21 00:15:26;;;;;;;24.17;7.78;;;;;;;;;;5232179;28;20021;-79
2022/11/21 00:17:57;;;;;;;23.80;7.73;;;;;;;;;;5214978;28;20036;-79
2022/11/21 00:20:29;;;;;;;28.97;8.57;;;;;;;;;;5235378;28;20836;-79
2022/11/21 00:23:00;;;;;;;25.42;8.68;;;;;;;;;;5232973;28;20610;-79
2022/11/21 00:25:31;;;;;;;25.53;8.40;;;;;;;;;;5234124;28;20030;-79
2022/11/21 00:28:03;;;;;;;25.98;8.68;;;;;;;;;;5232300;28;20297;-79
2022/11/21 00:30:34;;;;;;;26.08;8.18;;;;;;;;;;5217213;28;20028;-78
2022/11/21 00:33:05;;;;;;;20.25;6.53;;;;;;;;;;5236466;28;20045;-79
2022/11/21 00:35:36;;;;;;;15.18;5.05;;;;;;;;;;5232962;28;20026;-79
2022/11/21 00:38:08;;;;;;;21.13;5.60;;;;;;;;;;5232304;28;20042;-79
2022/11/21 00:40:41;;;;;;;15.40;6.05;;;;;;;;;;5232812;28;20269;-79
2022/11/21 00:43:12;;;;;;;18.52;6.05;;;;;;;;;;5232317;28;20042;-79
2022/11/21 00:45:43;;;;;;;28.50;7.50;;;;;;;;;;5232984;28;20052;-79
2022/11/21 00:48:14;;;;;;;28.40;8.27;;;;;;;;;;5215980;28;20343;-79
2022/11/21 00:50:48;;;;;;;20.63;6.93;;;;;;;;;;5215583;28;20296;-79
2022/11/21 00:53:20;;;;;;;26.33;8.52;;;;;;;;;;5235305;28;20257;-79
2022/11/21 00:55:51;;;;;;;29.10;8.27;;;;;;;;;;5233938;28;20032;-79
2022/11/21 00:58:22;;;;;;;25.37;7.23;;;;;;;;;;5232915;28;20034;-79
2022/11/21 01:01:01;;;;;;;21.63;7.18;;;;;;;;;;5234584;28;20296;-79
2022/11/21 01:03:32;;;;;;;44.47;8.10;;;;;;;;;;5231059;28;20034;-79
2022/11/21 01:06:08;;;;;;;30.67;6.57;;;;;;;;;;5232000;28;20037;-79
2022/11/21 01:08:40;;;;;;;32.35;7.47;;;;;;;;;;5215216;28;20056;-79
2022/11/21 01:11:13;;;;;;;23.50;6.95;;;;;;;;;;5233524;28;20487;-78
2022/11/21 01:13:45;;;;;;;21.88;6.95;;;;;;;;;;5231041;28;20038;-78
2022/11/21 01:16:17;;;;;;;26.77;7.72;;;;;;;;;;5215263;28;20379;-79
2022/11/21 01:18:49;;;;;;;27.70;8.52;;;;;;;;;;5214961;28;20170;-79
2022/11/21 01:21:20;;;;;;;32.03;8.35;;;;;;;;;;5231445;28;20429;-79
2022/11/21 01:23:51;;;;;;;27.03;7.60;;;;;;;;;;5232913;28;20205;-79
2022/11/21 01:26:23;;;;;;;27.70;7.53;;;;;;;;;;5233166;28;20284;-79
2022/11/21 01:28:56;;;;;;;28.83;7.20;;;;;;;;;;5230539;28;20395;-79
2022/11/21 01:31:28;;;;;;;35.33;9.20;;;;;;;;;;5232953;28;20034;-79
2022/11/21 01:33:59;;;;;;;24.27;7.60;;;;;;;;;;5214867;28;20029;-79
2022/11/21 01:36:31;;;;;;;25.60;7.95;;;;;;;;;;5216102;28;20037;-79
2022/11/21 01:39:04;;;;;;;31.52;7.97;;;;;;;;;;5232125;28;20038;-78
2022/11/21 01:41:44;;;;;;;31.35;8.63;;;;;;;;;;5235001;28;20034;-79
2022/11/21 01:44:15;;;;;;;22.40;6.22;;;;;;;;;;5234480;28;20037;-78
2022/11/21 01:46:47;;;;;;;22.88;6.72;;;;;;;;;;5235469;28;20041;-78
2022/11/21 01:49:26;;;;;;;26.20;7.55;;;;;;;;;;5220532;28;20030;-79
2022/11/21 01:52:00;;;;;;;25.42;7.88;;;;;;;;;;5234140;28;20045;-78
2022/11/21 01:54:40;;;;;;;25.63;8.27;;;;;;;;;;5235615;28;20491;-79
2022/11/21 01:57:13;;;;;;;25.33;7.25;;;;;;;;;;5237129;28;20033;-79
2022/11/21 01:59:50;;;;;;;20.27;7.70;;;;;;;;;;5236150;28;20026;-79
2022/11/21 02:02:23;;;;;;;19.05;7.38;;;;;;;;;;5235483;28;20038;-78
2022/11/21 02:04:54;;;;;;;27.77;8.25;;;;;;;;;;5233918;28;20030;-78
2022/11/21 02:07:27;;;;;;;19.70;7.63;;;;;;;;;;5234994;28;20078;-78
2022/11/21 02:09:59;;;;;;;33.50;9.18;;;;;;;;;;5235011;28;20045;-79
2022/11/21 02:12:38;;;;;;;26.50;8.43;;;;;;;;;;5235517;28;20038;-79
2022/11/21 02:15:09;;;;;;;41.00;8.90;;;;;;;;;;5236023;28;20037;-79
2022/11/21 02:17:41;;;;;;;33.00;8.05;;;;;;;;;;5234400;28;20037;-79
2022/11/21 02:20:16;;;;;;;27.97;7.50;;;;;;;;;;5235328;28;20046;-79
2022/11/21 02:23:06;;;;;;;19.25;7.40;;;;;;;;;;5219214;28;20758;-79
2022/11/21 02:25:40;;;;;;;24.58;7.68;;;;;;;;;;5234195;28;20061;-79
2022/11/21 02:28:13;;;;;;;44.72;9.80;;;;;;;;;;5235440;28;20116;-79
2022/11/21 02:30:45;;;;;;;32.60;9.15;;;;;;;;;;5235478;28;20037;-79
2022/11/21 02:33:16;;;;;;;40.42;10.50;;;;;;;;;;5234254;28;20038;-78
2022/11/21 02:36:00;;;;;;;32.70;10.57;;;;;;;;;;5235505;28;20036;-78
2022/11/21 02:38:33;;;;;;;32.28;10.30;;;;;;;;;;5233999;28;20034;-78
2022/11/21 02:41:07;;;;;;;28.20;11.23;;;;;;;;;;5233497;28;20034;-79
2022/11/21 02:43:43;;;;;;;46.92;14.93;;;;;;;;;;5235017;28;20042;-79
2022/11/21 02:46:14;;;;;;;70.80;16.45;;;;;;;;;;5234059;28;20042;-78
2022/11/21 02:48:45;;;;;;;221.27;25.15;;;;;;;;;;5235823;28;20521;-79
2022/11/21 02:51:17;;;;;;;204.77;24.88;;;;;;;;;;5215875;28;20165;-78
2022/11/21 02:53:48;;;;;;;228.53;27.27;;;;;;;;;;5234713;28;20154;-79
2022/11/21 02:56:19;;;;;;;190.90;25.00;;;;;;;;;;5217300;28;20285;-78
2022/11/21 02:58:50;;;;;;;354.80;33.83;;;;;;;;;;5232919;28;20030;-78
2022/11/21 03:01:21;;;;;;;195.63;26.50;;;;;;;;;;5231858;28;20956;-78
2022/11/21 03:03:52;;;;;;;212.73;27.47;;;;;;;;;;5234681;28;20375;-78
2022/11/21 03:06:24;;;;;;;230.03;30.93;;;;;;;;;;5235036;28;20360;-78
2022/11/21 03:08:55;;;;;;;275.77;33.90;;;;;;;;;;5234246;28;20284;-78
2022/11/21 03:11:26;;;;;;;249.23;35.27;;;;;;;;;;5235643;28;22002;-78
2022/11/21 03:13:57;;;;;;;269.87;38.07;;;;;;;;;;5216458;28;20303;-78
2022/11/21 03:16:28;;;;;;;193.63;37.88;;;;;;;;;;5235742;28;20273;-78
2022/11/21 03:19:00;;;;;;;192.50;38.53;;;;;;;;;;5233451;28;20022;-78
2022/11/21 03:21:31;;;;;;;182.52;41.72;;;;;;;;;;5234786;28;20416;-78
2022/11/21 03:24:02;;;;;;;175.47;38.43;;;;;;;;;;5233903;28;20034;-79
2022/11/21 03:26:33;;;;;;;173.63;41.97;;;;;;;;;;5234414;28;20249;-78
2022/11/21 03:29:04;;;;;;;168.90;41.03;;;;;;;;;;5215513;28;20525;-78
2022/11/21 03:31:35;;;;;;;190.43;38.88;;;;;;;;;;5233669;28;20367;-79
2022/11/21 03:34:07;;;;;;;352.83;47.08;;;;;;;;;;5234698;28;20372;-79
2022/11/21 03:36:39;;;;;;;219.27;39.75;;;;;;;;;;5232855;28;20045;-79
2022/11/21 03:39:10;;;;;;;233.32;39.10;;;;;;;;;;5234067;28;20510;-79
2022/11/21 03:41:41;;;;;;;199.00;38.20;;;;;;;;;;5232774;28;20026;-76
2022/11/21 03:44:12;;;;;;;211.10;38.97;;;;;;;;;;5234995;28;20033;-76
2022/11/21 03:46:45;;;;;;;199.18;38.45;;;;;;;;;;5234687;28;20406;-76
2022/11/21 03:49:16;;;;;;;256.75;39.97;;;;;;;;;;5233623;28;20038;-76
2022/11/21 03:51:47;;;;;;;211.75;39.42;;;;;;;;;;5234545;28;20040;-76
2022/11/21 03:54:18;;;;;;;226.52;39.50;;;;;;;;;;5234033;28;20036;-76
2022/11/21 03:56:49;;;;;;;227.73;40.87;;;;;;;;;;5215921;28;20395;-76
2022/11/21 03:59:20;;;;;;;204.00;36.03;;;;;;;;;;5233811;28;20664;-76
2022/11/21 04:01:52;;;;;;;218.75;39.35;;;;;;;;;;5232786;28;20344;-76
2022/11/21 04:04:23;;;;;;;211.45;38.20;;;;;;;;;;5234255;28;20108;-77
2022/11/21 04:06:54;;;;;;;158.02;36.20;;;;;;;;;;5232924;28;20145;-77
2022/11/21 04:09:25;;;;;;;181.73;38.80;;;;;;;;;;5233004;28;20078;-77
2022/11/21 04:11:56;;;;;;;290.03;43.03;;;;;;;;;;5215273;28;20285;-77
2022/11/21 04:14:28;;;;;;;191.70;39.50;;;;;;;;;;5233086;28;20364;-77
2022/11/21 04:16:59;;;;;;;277.38;42.40;;;;;;;;;;5232690;28;20308;-77
2022/11/21 04:19:30;;;;;;;143.77;35.00;;;;;;;;;;5234051;28;20041;-77
2022/11/21 04:22:01;;;;;;;342.15;44.40;;;;;;;;;;5233326;28;20296;-77
2022/11/21 04:24:32;;;;;;;342.60;43.65;;;;;;;;;;5232905;28;20037;-77
2022/11/21 04:27:04;;;;;;;191.90;38.85;;;;;;;;;;5216241;28;20407;-77
2022/11/21 04:29:35;;;;;;;355.50;45.42;;;;;;;;;;5215670;28;20506;-77
2022/11/21 04:32:06;;;;;;;196.20;41.80;;;;;;;;;;5214357;28;20045;-78
2022/11/21 04:34:38;;;;;;;208.00;41.80;;;;;;;;;;5230966;28;20105;-77
2022/11/21 04:37:09;;;;;;;218.57;40.53;;;;;;;;;;5234237;28;20281;-77
2022/11/21 04:39:40;;;;;;;231.90;42.17;;;;;;;;;;5232716;28;20025;-77
2022/11/21 04:42:12;;;;;;;204.20;41.38;;;;;;;;;;5233868;28;20037;-77
2022/11/21 04:44:43;;;;;;;229.00;41.33;;;;;;;;;;5233013;28;20358;-78
2022/11/21 04:47:17;;;;;;;248.70;42.38;;;;;;;;;;5233158;28;20409;-78
2022/11/21 04:49:49;;;;;;;189.70;41.28;;;;;;;;;;5237342;28;20032;-75
2022/11/21 04:52:20;;;;;;;146.37;37.63;;;;;;;;;;5235347;28;20037;-78
2022/11/21 04:54:51;;;;;;;253.47;41.90;;;;;;;;;;5231811;28;20280;-78
2022/11/21 04:57:22;;;;;;;161.98;35.25;;;;;;;;;;5233094;28;20265;-78
2022/11/21 04:59:57;;;;;;;200.67;34.43;;;;;;;;;;5233877;28;20516;-78
2022/11/21 05:02:29;;;;;;;206.13;38.75;;;;;;;;;;5224683;28;20324;-78
2022/11/21 05:05:00;;;;;;;244.10;36.40;;;;;;;;;;5238748;28;20022;-78
2022/11/21 05:07:31;;;;;;;366.02;43.80;;;;;;;;;;5215953;28;20038;-78
2022/11/21 05:10:03;;;;;;;256.83;37.17;;;;;;;;;;5229546;28;20022;-77
2022/11/21 05:15:24;;;;;;;259.42;36.95;;;;;;;;;;5235419;28;20034;-77
2022/11/21 05:17:57;;;;;;;369.47;44.70;;;;;;;;;;5237322;28;20040;-78
2022/11/21 05:20:28;;;;;;;307.70;38.38;;;;;;;;;;5235060;28;20376;-77
2022/11/21 05:23:00;;;;;;;283.77;38.53;;;;;;;;;;5235012;28;20030;-78
2022/11/21 05:25:31;;;;;;;258.80;36.87;;;;;;;;;;5236483;28;20272;-77
2022/11/21 05:28:02;;;;;;;288.57;38.60;;;;;;;;;;5237691;28;20299;-77
2022/11/21 05:30:33;;;;;;;247.20;38.10;;;;;;;;;;5235415;28;20339;-77
2022/11/21 05:33:04;;;;;;;222.50;36.77;;;;;;;;;;5235978;28;20265;-77
2022/11/21 05:35:37;;;;;;;133.40;30.83;;;;;;;;;;5232757;28;20285;-77
2022/11/21 05:38:08;;;;;;;195.63;35.30;;;;;;;;;;5237875;28;20068;-77
2022/11/21 05:40:39;;;;;;;135.60;33.23;;;;;;;;;;5235754;28;21702;-77
2022/11/21 05:46:00;;;;;;;114.28;32.25;;;;;;;;;;5235994;28;20281;-77
2022/11/21 05:48:33;;;;;;;73.50;31.23;;;;;;;;;;5236134;28;20545;-78
2022/11/21 05:51:04;;;;;;;74.55;30.30;;;;;;;;;;5237733;28;20488;-77
2022/11/21 05:53:35;;;;;;;66.47;28.23;;;;;;;;;;5235622;28;20080;-77
2022/11/21 05:56:08;;;;;;;53.10;25.58;;;;;;;;;;5236515;28;20276;-77
2022/11/21 05:58:39;;;;;;;85.38;28.48;;;;;;;;;;5235227;28;20084;-77
2022/11/21 06:01:13;;;;;;;86.25;27.55;;;;;;;;;;5236268;28;20687;-77
2022/11/21 06:03:44;;;;;;;71.18;27.45;;;;;;;;;;5235114;28;20513;-77
2022/11/21 06:06:15;;;;;;;71.87;28.77;;;;;;;;;;5236035;28;20528;-76
2022/11/21 06:08:46;;;;;;;68.70;29.03;;;;;;;;;;5237508;28;20363;-78
2022/11/21 06:11:18;;;;;;;67.20;26.90;;;;;;;;;;5242537;28;20278;-79
2022/11/21 06:13:49;;;;;;;58.92;25.95;;;;;;;;;;5222308;28;20285;-79
2022/11/21 06:16:20;;;;;;;58.10;28.30;;;;;;;;;;5237530;28;20487;-78
2022/11/21 06:18:51;;;;;;;64.43;26.05;;;;;;;;;;5237400;28;20272;-78
2022/11/21 06:21:24;;;;;;;46.63;21.85;;;;;;;;;;5235618;28;20550;-79
2022/11/21 06:23:56;;;;;;;60.28;27.20;;;;;;;;;;5235281;28;20034;-78
2022/11/21 06:26:27;;;;;;;68.60;29.92;;;;;;;;;;5236806;28;20379;-79
2022/11/21 06:28:58;;;;;;;67.25;27.92;;;;;;;;;;5220252;28;20034;-78
2022/11/21 06:31:30;;;;;;;71.83;32.83;;;;;;;;;;5237109;28;20519;-79
2022/11/21 06:34:02;;;;;;;78.85;34.33;;;;;;;;;;5238242;28;20254;-78
2022/11/21 06:36:33;;;;;;;72.30;31.73;;;;;;;;;;5237572;28;20538;-78
2022/11/21 06:39:04;;;;;;;96.32;37.92;;;;;;;;;;5221516;28;20026;-78
2022/11/21 06:41:35;;;;;;;82.93;37.70;;;;;;;;;;5220709;28;20494;-79
2022/11/21 06:44:07;;;;;;;77.77;34.57;;;;;;;;;;5238830;28;20054;-78
2022/11/21 06:46:38;;;;;;;80.88;35.65;;;;;;;;;;5239831;28;20295;-78
2022/11/21 06:49:09;;;;;;;76.60;32.83;;;;;;;;;;5236158;28;20062;-78
2022/11/21 06:51:40;;;;;;;80.25;35.75;;;;;;;;;;5230322;28;20254;-79
2022/11/21 06:54:11;;;;;;;76.57;35.63;;;;;;;;;;5235500;28;20052;-79
2022/11/21 06:56:43;;;;;;;72.20;34.50;;;;;;;;;;5236485;28;20637;-79
2022/11/21 06:59:14;;;;;;;74.83;34.47;;;;;;;;;;5236543;28;20030;-79
2022/11/21 07:01:45;;;;;;;80.60;35.53;;;;;;;;;;5235076;28;20275;-78
2022/11/21 07:04:16;;;;;;;73.87;35.30;;;;;;;;;;5237175;28;20769;-79
2022/11/21 07:06:47;;;;;;;76.40;33.60;;;;;;;;;;5234437;28;20311;-78
2022/11/21 07:09:18;;;;;;;72.67;33.87;;;;;;;;;;5219778;28;20041;-79
2022/11/21 07:11:50;;;;;;;69.70;31.63;;;;;;;;;;5219700;28;20303;-76
2022/11/21 07:14:21;;;;;;;69.03;32.28;;;;;;;;;;5220023;28;20793;-76
2022/11/21 07:16:52;;;;;;;66.37;29.90;;;;;;;;;;5235639;28;20046;-76
2022/11/21 07:19:23;;;;;;;70.25;32.63;;;;;;;;;;5237320;28;20654;-76
2022/11/21 07:21:54;;;;;;;68.35;32.03;;;;;;;;;;5239380;28;20501;-76
2022/11/21 07:24:25;;;;;;;68.87;33.07;;;;;;;;;;5235782;28;20117;-76
2022/11/21 07:26:57;;;;;;;72.27;30.67;;;;;;;;;;5223526;28;20787;-76
2022/11/21 07:29:28;;;;;;;66.07;33.80;;;;;;;;;;5240990;28;20339;-76
2022/11/21 07:31:59;;;;;;;65.77;31.17;;;;;;;;;;5224532;28;20026;-76
2022/11/21 07:34:30;;;;;;;58.08;30.30;;;;;;;;;;5238791;28;20273;-76
2022/11/21 07:37:01;;;;;;;61.10;30.20;;;;;;;;;;5235524;28;20081;-76
2022/11/21 07:39:32;;;;;;;56.43;28.90;;;;;;;;;;5241917;28;20097;-76
2022/11/21 07:42:04;;;;;;;62.47;29.80;;;;;;;;;;5224433;28;20319;-77
2022/11/21 07:44:35;;;;;;;58.57;26.07;;;;;;;;;;5233696;28;20288;-76
2022/11/21 07:47:06;;;;;;;54.60;27.03;;;;;;;;;;5237237;28;20293;-77
2022/11/21 07:49:37;;;;;;;49.08;25.13;;;;;;;;;;5232925;28;20279;-78
2022/11/21 07:52:08;;;;;;;51.57;24.53;;;;;;;;;;5236496;28;20014;-79
2022/11/21 07:54:39;;;;;;;49.33;22.98;;;;;;;;;;5238122;28;20273;-78
2022/11/21 07:57:11;;;;;;;49.47;24.00;;;;;;;;;;5237909;28;20034;-76
2022/11/21 07:59:43;;;;;;;48.27;23.30;;;;;;;;;;5235300;28;20285;-76
2022/11/21 08:02:18;;;;;;;45.92;23.55;;;;;;;;;;5234927;28;20289;-76
2022/11/21 08:04:50;;;;;;;42.35;21.67;;;;;;;;;;5239116;28;20112;-77
2022/11/21 08:07:21;;;;;;;39.67;20.35;;;;;;;;;;5235868;28;20121;-77
2022/11/21 08:09:52;;;;;;;39.22;19.63;;;;;;;;;;5235704;28;20033;-77
2022/11/21 08:12:24;;;;;;;39.87;20.90;;;;;;;;;;5230151;28;20383;-77
2022/11/21 08:14:55;;;;;;;38.35;18.27;;;;;;;;;;5236107;28;20300;-77
2022/11/21 08:17:27;;;;;;;35.27;18.37;;;;;;;;;;5236058;28;20061;-77
2022/11/21 08:19:59;;;;;;;40.83;17.10;;;;;;;;;;5236821;28;20623;-77
2022/11/21 08:22:30;;;;;;;37.80;19.83;;;;;;;;;;5233008;28;20380;-77
2022/11/21 08:25:01;;;;;;;42.20;19.15;;;;;;;;;;5234421;28;20037;-77
2022/11/21 08:27:32;;;;;;;32.90;16.83;;;;;;;;;;5234940;28;20025;-77
2022/11/21 08:30:07;;;;;;;32.50;16.60;;;;;;;;;;5236193;28;20265;-77
2022/11/21 08:32:38;;;;;;;28.90;15.85;;;;;;;;;;5236383;28;20265;-77
2022/11/21 08:35:09;;;;;;;32.10;15.20;;;;;;;;;;5235100;28;20064;-77
2022/11/21 08:37:41;;;;;;;31.42;15.55;;;;;;;;;;5240235;28;20265;-77
2022/11/21 08:40:12;;;;;;;31.17;14.70;;;;;;;;;;5243086;28;20101;-77
2022/11/21 08:42:43;;;;;;;27.25;15.43;;;;;;;;;;5239326;28;20285;-76
2022/11/21 08:45:14;;;;;;;30.53;14.63;;;;;;;;;;5240084;28;20025;-77
2022/11/21 08:47:45;;;;;;;29.98;14.43;;;;;;;;;;5222871;28;20285;-77
2022/11/21 08:50:17;;;;;;;30.60;13.95;;;;;;;;;;5239411;28;20018;-77
2022/11/21 08:52:48;;;;;;;25.35;14.52;;;;;;;;;;5238931;28;20037;-77
2022/11/21 08:55:19;;;;;;;26.48;14.60;;;;;;;;;;5220955;28;20077;-77
2022/11/21 08:57:51;;;;;;;30.17;13.70;;;;;;;;;;5233131;28;20034;-77
2022/11/21 09:00:22;;;;;;;23.27;13.23;;;;;;;;;;5236639;28;20116;-77
2022/11/21 09:02:53;;;;;;;28.25;12.45;;;;;;;;;;5236392;28;20482;-77
2022/11/21 09:05:24;;;;;;;26.47;12.83;;;;;;;;;;5235665;28;21610;-77
2022/11/21 09:07:56;;;;;;;27.47;12.37;;;;;;;;;;5235079;28;20392;-77
2022/11/21 09:10:28;;;;;;;24.63;12.60;;;;;;;;;;5237839;28;20270;-77
2022/11/21 09:12:59;;;;;;;24.67;11.80;;;;;;;;;;5237974;28;20030;-78
2022/11/21 09:18:20;;;;;;;22.30;11.82;;;;;;;;;;5237150;28;20030;-77
2022/11/21 09:20:51;;;;;;;20.70;11.53;;;;;;;;;;5237774;28;20052;-78
2022/11/21 09:23:22;;;;;;;25.45;11.65;;;;;;;;;;5220484;28;20315;-78
2022/11/21 09:25:55;;;;;;;24.35;11.55;;;;;;;;;;5236623;28;20044;-77
2022/11/21 09:28:26;;;;;;;18.52;10.82;;;;;;;;;;5237882;28;20026;-77
2022/11/21 09:30:57;;;;;;;22.07;11.67;;;;;;;;;;5236748;28;20022;-78
2022/11/21 09:33:28;;;;;;;22.45;12.43;;;;;;;;;;5233921;28;20291;-78
2022/11/21 09:36:00;;;;;;;19.80;10.55;;;;;;;;;;5234832;28;20030;-78
2022/11/21 09:38:31;;;;;;;20.27;10.13;;;;;;;;;;5231918;28;20430;-77
2022/11/21 09:41:50;;;;;;;20.58;9.18;;;;;;;;;;5216158;28;20052;-78
2022/11/21 09:44:19;;;;;;;15.98;9.50;;;;;;;;;;5237351;28;20041;-78
2022/11/21 09:46:54;;;;;;;19.10;8.63;;;;;;;;;;5240178;28;20238;-78
2022/11/21 09:49:25;;;;;;;20.90;9.23;;;;;;;;;;5247699;28;20025;-77
2022/11/21 09:51:58;;;;;;;17.90;8.90;;;;;;;;;;5262729;28;20018;-77
2022/11/21 09:54:31;;;;;;;18.20;9.00;;;;;;;;;;5262871;28;20032;-77
2022/11/21 09:57:02;;;;;;;18.95;7.55;;;;;;;;;;5262357;28;20022;-77
2022/11/21 09:59:37;;;;;;;15.27;8.25;;;;;;;;;;5251493;28;20076;-78
2022/11/21 10:02:16;;;;;;;16.90;8.68;;;;;;;;;;5240079;28;20034;-77
2022/11/21 10:04:47;;;;;;;17.42;8.35;;;;;;;;;;5244849;28;20022;-77
2022/11/21 10:07:30;;;;;;;16.70;8.13;;;;;;;;;;5245611;28;20026;-79
2022/11/21 10:10:07;;;;;;;12.85;7.55;;;;;;;;;;5244017;28;20038;-78
2022/11/21 10:12:38;;;;;;;14.18;6.75;;;;;;;;;;5226524;28;20053;-78
2022/11/21 10:15:22;;;;;;;13.97;6.47;;;;;;;;;;5244661;28;20018;-78
2022/11/21 10:17:55;;;;;;;18.73;6.85;;;;;;;;;;5244559;28;20296;-78
2022/11/21 10:20:45;;;;;;;14.70;5.63;;;;;;;;;;5245334;28;20411;-79
2022/11/21 10:23:19;;;;;;;17.00;6.25;;;;;;;;;;5242271;28;20073;-79
2022/11/21 10:26:10;;;;;;;11.15;5.90;;;;;;;;;;5224957;28;20160;-78
2022/11/21 10:28:41;;;;;;;15.23;5.70;;;;;;;;;;5243317;28;20061;-78
2022/11/21 10:31:14;;;;;;;17.38;5.78;;;;;;;;;;5244261;28;20120;-78
2022/11/21 10:33:45;;;;;;;10.65;4.70;;;;;;;;;;5236602;28;20445;-78
2022/11/21 10:36:16;;;;;;;14.68;5.28;;;;;;;;;;5232886;28;20030;-78
2022/11/21 10:38:49;;;;;;;12.15;3.40;;;;;;;;;;5243838;28;20052;-79
2022/11/21 10:41:23;;;;;;;10.43;4.30;;;;;;;;;;5244689;28;20018;-78
2022/11/21 10:46:58;;;;;;;13.90;4.38;;;;;;;;;;5243548;28;20421;-78
2022/11/21 10:49:32;;;;;;;11.93;4.53;;;;;;;;;;5243766;28;20038;-77
2022/11/21 10:52:10;;;;;;;8.98;3.88;;;;;;;;;;5244566;28;20018;-76
2022/11/21 10:55:00;;;;;;;8.75;3.25;;;;;;;;;;5244270;28;20079;-76
2022/11/21 10:57:35;;;;;;;9.73;2.97;;;;;;;;;;5243190;28;20034;-76
2022/11/21 11:00:12;;;;;;;10.98;3.83;;;;;;;;;;5230611;28;20025;-77
2022/11/21 11:03:04;;;;;;;9.85;3.13;;;;;;;;;;5264814;28;20108;-77
2022/11/21 11:05:36;;;;;;;6.82;2.60;;;;;;;;;;5256702;28;20066;-77
2022/11/21 11:08:11;;;;;;;10.65;3.60;;;;;;;;;;5223536;28;20054;-75
2022/11/21 11:10:43;;;;;;;9.30;2.80;;;;;;;;;;5223343;28;20069;-77
2022/11/21 11:16:01;;;;;;;9.27;2.85;;;;;;;;;;5244326;28;20558;-77
2022/11/21 11:18:34;;;;;;;6.15;2.67;;;;;;;;;;5226387;28;20034;-77
2022/11/21 11:21:13;;;;;;;7.55;2.33;;;;;;;;;;5243213;28;20508;-77
2022/11/21 11:23:45;;;;;;;8.20;3.08;;;;;;;;;;5243292;28;20038;-78
2022/11/21 11:26:18;;;;;;;10.25;2.88;;;;;;;;;;5226144;28;20021;-78
2022/11/21 11:28:50;;;;;;;7.07;2.38;;;;;;;;;;5242912;28;20128;-78
2022/11/21 11:31:21;;;;;;;8.27;2.53;;;;;;;;;;5225824;28;20057;-77
2022/11/21 11:33:54;;;;;;;8.52;2.83;;;;;;;;;;5243157;28;20033;-78
2022/11/21 11:36:36;;;;;;;6.68;2.63;;;;;;;;;;5241850;28;20486;-77
2022/11/21 11:39:13;;;;;;;8.18;2.60;;;;;;;;;;5242860;28;20028;-78
2022/11/21 11:47:59;;;;;;;7.88;2.53;;;;;;;;;;5241608;28;20042;-78
2022/11/21 11:50:30;;;;;;;5.83;2.13;;;;;;;;;;5241708;28;20825;-78
2022/11/21 11:53:10;;;;;;;6.70;2.30;;;;;;;;;;5241240;28;20335;-79
2022/11/21 11:55:45;;;;;;;5.30;2.40;;;;;;;;;;5214478;28;20770;-78
2022/11/21 11:58:36;;;;;;;7.10;2.55;;;;;;;;;;5220883;28;20026;-78
2022/11/21 12:01:14;;;;;;;6.13;2.47;;;;;;;;;;5224814;28;20037;-78
2022/11/21 12:04:06;;;;;;;5.63;2.33;;;;;;;;;;5262113;28;20093;-78
2022/11/21 12:06:43;;;;;;;4.10;2.20;;;;;;;;;;5203392;28;20041;-78
2022/11/21 12:09:25;;;;;;;7.28;2.53;;;;;;;;;;5241294;28;20502;-78
2022/11/21 12:12:07;;;;;;;6.78;2.65;;;;;;;;;;5241356;28;20381;-78
2022/11/21 12:17:41;;;;;;;10.23;2.42;;;;;;;;;;5242041;28;20120;-77
2022/11/21 12:20:21;;;;;;;4.88;2.65;;;;;;;;;;5223626;28;20038;-77
2022/11/21 12:22:54;;;;;;;7.03;2.05;;;;;;;;;;5241374;28;20528;-77
2022/11/21 12:25:29;;;;;;;7.13;2.42;;;;;;;;;;5241471;28;20389;-77
2022/11/21 12:28:04;;;;;;;16.40;2.88;;;;;;;;;;5240785;28;20034;-77
2022/11/21 12:30:58;;;;;;;7.07;2.38;;;;;;;;;;5241078;28;20033;-76
2022/11/21 12:33:30;;;;;;;6.78;2.20;;;;;;;;;;5241018;28;20109;-76
2022/11/21 12:36:06;;;;;;;4.38;2.03;;;;;;;;;;5241271;28;20190;-77
2022/11/21 12:38:38;;;;;;;7.15;2.60;;;;;;;;;;5241385;28;20037;-77
2022/11/21 12:44:34;;;;;;;5.35;2.13;;;;;;;;;;5240741;28;20502;-76
2022/11/21 12:47:14;;;;;;;9.00;2.20;;;;;;;;;;5240766;28;20447;-76
2022/11/21 12:55:40;;;;;;;6.07;1.80;;;;;;;;;;5239851;28;20100;-76
2022/11/21 12:58:31;;;;;;;3.88;1.63;;;;;;;;;;5240315;28;20026;-76
2022/11/21 13:01:14;;;;;;;6.70;1.70;;;;;;;;;;5253016;28;20040;-77
2022/11/21 13:03:48;;;;;;;6.82;1.73;;;;;;;;;;5261345;28;20385;-77
2022/11/21 13:06:27;;;;;;;7.25;2.70;;;;;;;;;;5229557;28;20037;-77
2022/11/21 13:09:01;;;;;;;6.13;1.70;;;;;;;;;;5240423;28;20157;-77
2022/11/21 13:11:57;;;;;;;7.57;1.83;;;;;;;;;;5223646;28;20041;-77
2022/11/21 13:14:51;;;;;;;8.35;2.80;;;;;;;;;;5240661;28;20029;-76
2022/11/21 13:17:33;;;;;;;5.80;2.28;;;;;;;;;;5240540;28;20050;-77
2022/11/21 13:20:23;;;;;;;4.97;2.20;;;;;;;;;;5240318;28;20478;-77
2022/11/21 13:22:56;;;;;;;5.35;1.80;;;;;;;;;;5233985;28;20068;-77
2022/11/21 13:25:30;;;;;;;7.63;3.17;;;;;;;;;;5220231;28;20019;-77
2022/11/21 13:28:21;;;;;;;10.13;3.13;;;;;;;;;;5219502;28;20164;-77
2022/11/21 13:30:53;;;;;;;7.05;2.25;;;;;;;;;;5229276;28;20077;-77
2022/11/21 13:33:34;;;;;;;9.23;2.28;;;;;;;;;;5240194;28;20022;-77
2022/11/21 13:36:06;;;;;;;8.50;2.22;;;;;;;;;;5225304;28;20026;-76
2022/11/21 13:38:58;;;;;;;7.65;2.25;;;;;;;;;;5226552;28;20034;-76
2022/11/21 13:44:32;;;;;;;7.53;2.58;;;;;;;;;;5242259;28;20038;-77
2022/11/21 13:47:22;;;;;;;8.48;1.90;;;;;;;;;;5240633;28;20037;-77
2022/11/21 13:49:59;;;;;;;6.95;2.42;;;;;;;;;;5238017;28;20117;-77
2022/11/21 13:52:37;;;;;;;7.38;2.35;;;;;;;;;;5239153;28;20033;-77
2022/11/21 13:55:27;;;;;;;7.55;2.47;;;;;;;;;;5235843;28;20037;-77
2022/11/21 13:58:10;;;;;;;7.38;2.85;;;;;;;;;;5237616;28;20036;-77
2022/11/21 14:01:00;;;;;;;9.82;2.88;;;;;;;;;;5250677;28;20053;-77
2022/11/21 14:03:44;;;;;;;9.00;3.22;;;;;;;;;;5241463;28;20034;-77
2022/11/21 14:06:29;;;;;;;8.43;2.67;;;;;;;;;;5242923;28;20069;-77
2022/11/21 14:09:19;;;;;;;7.47;2.63;;;;;;;;;;5221440;28;20042;-77
2022/11/21 14:11:51;;;;;;;7.75;2.90;;;;;;;;;;5242224;28;20034;-77
2022/11/21 14:14:30;;;;;;;10.50;2.85;;;;;;;;;;5243531;28;20490;-77
2022/11/21 14:17:12;;;;;;;8.32;3.15;;;;;;;;;;5247788;28;20053;-77
2022/11/21 14:19:44;;;;;;;9.75;2.85;;;;;;;;;;5237551;28;20493;-78
2022/11/21 14:22:35;;;;;;;12.70;3.13;;;;;;;;;;5243489;28;20042;-77
2022/11/21 14:25:09;;;;;;;9.23;3.10;;;;;;;;;;5239541;28;20027;-76
2022/11/21 14:27:44;;;;;;;9.50;3.30;;;;;;;;;;5240419;28;20069;-77
2022/11/21 14:30:28;;;;;;;8.40;2.70;;;;;;;;;;5240488;28;20430;-77
2022/11/21 14:33:18;;;;;;;9.70;2.58;;;;;;;;;;5236497;28;20041;-77
2022/11/21 14:35:51;;;;;;;9.00;2.55;;;;;;;;;;5239801;28;20045;-76
2022/11/21 14:38:23;;;;;;;8.90;3.08;;;;;;;;;;5240916;28;20042;-76
2022/11/21 14:41:12;;;;;;;9.40;3.00;;;;;;;;;;5244144;28;20029;-76
2022/11/21 14:43:44;;;;;;;12.18;3.78;;;;;;;;;;5243854;28;20109;-76
2022/11/21 14:46:18;;;;;;;8.30;2.63;;;;;;;;;;5242763;28;20541;-77
2022/11/21 14:48:51;;;;;;;9.05;2.90;;;;;;;;;;5239242;28;20034;-76
2022/11/21 14:51:23;;;;;;;9.35;3.63;;;;;;;;;;5247404;28;20061;-77
2022/11/21 14:53:54;;;;;;;8.20;2.75;;;;;;;;;;5263809;28;20105;-77
2022/11/21 14:56:27;;;;;;;11.90;3.50;;;;;;;;;;5246740;28;20075;-76
2022/11/21 14:59:00;;;;;;;8.00;2.60;;;;;;;;;;5264336;28;20427;-77
2022/11/21 15:01:33;;;;;;;10.63;3.13;;;;;;;;;;5244680;28;20026;-77
2022/11/21 15:04:05;;;;;;;10.07;2.90;;;;;;;;;;5243218;28;20057;-77
2022/11/21 15:06:40;;;;;;;7.45;2.63;;;;;;;;;;5243112;28;20491;-77
2022/11/21 15:09:12;;;;;;;11.00;3.17;;;;;;;;;;5242997;28;20050;-76
2022/11/21 15:11:53;;;;;;;9.90;3.15;;;;;;;;;;5243896;28;20050;-77
2022/11/21 15:14:45;;;;;;;6.32;2.85;;;;;;;;;;5243605;28;20026;-76
2022/11/21 15:17:20;;;;;;;8.88;3.45;;;;;;;;;;5242292;28;20399;-76
2022/11/21 15:20:02;;;;;;;10.70;3.20;;;;;;;;;;5243435;28;20036;-76
2022/11/21 15:22:35;;;;;;;8.85;3.30;;;;;;;;;;5240188;28;20039;-77
2022/11/21 15:25:14;;;;;;;10.30;3.08;;;;;;;;;;5237131;28;20014;-77
2022/11/21 15:27:49;;;;;;;9.07;3.42;;;;;;;;;;5243574;28;20037;-77
2022/11/21 15:30:23;;;;;;;13.52;3.25;;;;;;;;;;5243741;28;20017;-77
2022/11/21 15:33:01;;;;;;;8.18;2.90;;;;;;;;;;5243527;28;20029;-76
2022/11/21 15:35:39;;;;;;;11.35;3.78;;;;;;;;;;5225280;28;20079;-76
2022/11/21 15:38:28;;;;;;;9.63;3.50;;;;;;;;;;5224393;28;20509;-77